sensor_id;sensor_type;location;lat;lon;timestamp;pressure;altitude;pressure_sealevel;temperature;humidity
47104;BME280;32853;52.164;5.400;2023-04-03T00:01:07;103005.81;;;6.28;80.43
47104;BME280;32853;52.164;5.400;2023-04-03T00:03:33;103031.91;;;6.35;80.74
47104;BME280;32853;52.164;5.400;2023-04-03T00:06:23;103019.63;;;6.22;81.20
47104;BME280;32853;52.164;5.400;2023-04-03T00:08:52;103024.97;;;6.33;79.17
47104;BME280;32853;52.164;5.400;2023-04-03T00:11:42;103024.97;;;6.33;79.42
47104;BME280;32853;52.164;5.400;2023-04-03T00:14:08;102958.47;;;5.85;81.05
47104;BME280;32853;52.164;5.400;2023-04-03T00:16:36;103029.88;;;6.13;81.27
47104;BME280;32853;52.164;5.400;2023-04-03T00:19:03;102989.78;;;5.94;82.62
47104;BME280;32853;52.164;5.400;2023-04-03T00:21:36;103021.81;;;5.95;82.61
47104;BME280;32853;52.164;5.400;2023-04-03T00:24:08;102938.78;;;5.42;81.37
47104;BME280;32853;52.164;5.400;2023-04-03T00:26:33;102968.78;;;5.80;80.61
47104;BME280;32853;52.164;5.400;2023-04-03T00:28:59;103024.59;;;6.08;82.94
47104;BME280;32853;52.164;5.400;2023-04-03T00:31:24;103021.53;;;5.76;83.40
47104;BME280;32853;52.164;5.400;2023-04-03T00:33:50;103028.88;;;6.02;82.24
47104;BME280;32853;52.164;5.400;2023-04-03T00:36:15;103025.59;;;6.17;81.55
47104;BME280;32853;52.164;5.400;2023-04-03T00:38:40;102984.41;;;5.83;82.62
47104;BME280;32853;52.164;5.400;2023-04-03T00:41:06;103038.16;;;5.89;85.00
47104;BME280;32853;52.164;5.400;2023-04-03T00:43:39;103035.63;;;5.91;86.70
47104;BME280;32853;52.164;5.400;2023-04-03T00:46:04;103044.31;;;5.93;84.38
47104;BME280;32853;52.164;5.400;2023-04-03T00:48:34;103043.34;;;5.88;84.08
47104;BME280;32853;52.164;5.400;2023-04-03T00:51:03;103002.25;;;5.62;86.53
47104;BME280;32853;52.164;5.400;2023-04-03T00:53:35;102985.75;;;5.56;85.47
47104;BME280;32853;52.164;5.400;2023-04-03T00:56:06;103029.47;;;5.87;85.44
47104;BME280;32853;52.164;5.400;2023-04-03T00:58:44;103055.78;;;6.08;86.37
47104;BME280;32853;52.164;5.400;2023-04-03T01:01:25;103051.41;;;6.04;85.61
47104;BME280;32853;52.164;5.400;2023-04-03T01:04:00;103039.72;;;5.76;86.00
47104;BME280;32853;52.164;5.400;2023-04-03T01:06:36;102962.03;;;5.33;87.14
47104;BME280;32853;52.164;5.400;2023-04-03T01:09:03;103050.97;;;5.77;86.81
47104;BME280;32853;52.164;5.400;2023-04-03T01:11:31;103039.56;;;5.67;90.59
47104;BME280;32853;52.164;5.400;2023-04-03T01:13:56;103044.75;;;5.66;90.40
47104;BME280;32853;52.164;5.400;2023-04-03T01:16:21;103041.03;;;5.51;93.22
47104;BME280;32853;52.164;5.400;2023-04-03T01:18:48;102986.84;;;5.17;93.23
47104;BME280;32853;52.164;5.400;2023-04-03T01:24:34;103047.34;;;5.66;95.77
47104;BME280;32853;52.164;5.400;2023-04-03T01:27:14;103049.69;;;5.52;95.39
47104;BME280;32853;52.164;5.400;2023-04-03T01:29:40;103055.88;;;5.60;96.16
47104;BME280;32853;52.164;5.400;2023-04-03T01:32:17;103056.69;;;5.54;99.86
47104;BME280;32853;52.164;5.400;2023-04-03T01:34:52;103051.34;;;5.47;99.47
47104;BME280;32853;52.164;5.400;2023-04-03T01:37:18;103012.91;;;5.23;99.94
47104;BME280;32853;52.164;5.400;2023-04-03T01:39:46;103037.53;;;5.49;100.00
47104;BME280;32853;52.164;5.400;2023-04-03T01:42:23;103042.88;;;5.59;99.34
47104;BME280;32853;52.164;5.400;2023-04-03T01:45:06;103031.81;;;5.19;100.00
47104;BME280;32853;52.164;5.400;2023-04-03T01:47:34;103041.84;;;5.49;100.00
47104;BME280;32853;52.164;5.400;2023-04-03T01:50:01;103046.69;;;5.28;100.00
47104;BME280;32853;52.164;5.400;2023-04-03T01:52:29;103045.75;;;5.22;100.00
47104;BME280;32853;52.164;5.400;2023-04-03T01:54:55;103029.13;;;5.11;100.00
47104;BME280;32853;52.164;5.400;2023-04-03T01:57:30;103027.84;;;5.38;100.00
47104;BME280;32853;52.164;5.400;2023-04-03T01:59:57;102991.53;;;4.88;100.00
47104;BME280;32853;52.164;5.400;2023-04-03T02:02:22;103038.53;;;5.08;100.00
47104;BME280;32853;52.164;5.400;2023-04-03T02:04:47;103051.81;;;5.23;100.00
47104;BME280;32853;52.164;5.400;2023-04-03T02:07:13;103055.47;;;5.34;100.00
47104;BME280;32853;52.164;5.400;2023-04-03T02:09:38;103040.38;;;5.13;100.00
47104;BME280;32853;52.164;5.400;2023-04-03T02:12:04;102976.94;;;4.94;100.00
47104;BME280;32853;52.164;5.400;2023-04-03T02:14:29;103058.94;;;5.36;100.00
47104;BME280;32853;52.164;5.400;2023-04-03T02:16:54;103068.25;;;5.25;100.00
47104;BME280;32853;52.164;5.400;2023-04-03T02:19:20;103075.25;;;5.29;100.00
47104;BME280;32853;52.164;5.400;2023-04-03T02:21:45;103066.53;;;5.24;100.00
47104;BME280;32853;52.164;5.400;2023-04-03T02:24:11;103066.38;;;5.16;100.00
47104;BME280;32853;52.164;5.400;2023-04-03T02:26:36;103060.09;;;5.04;100.00
47104;BME280;32853;52.164;5.400;2023-04-03T02:29:01;103065.66;;;5.25;100.00
47104;BME280;32853;52.164;5.400;2023-04-03T02:31:27;102998.53;;;4.93;100.00
47104;BME280;32853;52.164;5.400;2023-04-03T02:33:53;103000.22;;;4.90;100.00
47104;BME280;32853;52.164;5.400;2023-04-03T02:36:18;103061.84;;;5.06;100.00
47104;BME280;32853;52.164;5.400;2023-04-03T02:38:43;102906.41;;;4.19;100.00
47104;BME280;32853;52.164;5.400;2023-04-03T02:41:10;102964.94;;;4.53;100.00
47104;BME280;32853;52.164;5.400;2023-04-03T02:43:38;102984.00;;;4.55;100.00
47104;BME280;32853;52.164;5.400;2023-04-03T02:46:09;103076.75;;;5.16;100.00
47104;BME280;32853;52.164;5.400;2023-04-03T02:48:40;103076.56;;;5.07;100.00
47104;BME280;32853;52.164;5.400;2023-04-03T02:51:06;102992.56;;;4.52;100.00
47104;BME280;32853;52.164;5.400;2023-04-03T02:53:31;102996.81;;;4.49;100.00
47104;BME280;32853;52.164;5.400;2023-04-03T02:55:56;103083.47;;;5.07;100.00
47104;BME280;32853;52.164;5.400;2023-04-03T02:58:22;103031.22;;;4.85;100.00
47104;BME280;32853;52.164;5.400;2023-04-03T03:00:47;103081.72;;;5.04;100.00
47104;BME280;32853;52.164;5.400;2023-04-03T03:03:12;103070.31;;;4.96;100.00
47104;BME280;32853;52.164;5.400;2023-04-03T03:05:39;103088.56;;;5.01;100.00
47104;BME280;32853;52.164;5.400;2023-04-03T03:08:04;103092.06;;;5.03;100.00
47104;BME280;32853;52.164;5.400;2023-04-03T03:10:30;103087.56;;;4.94;100.00
47104;BME280;32853;52.164;5.400;2023-04-03T03:12:55;103104.78;;;4.90;100.00
47104;BME280;32853;52.164;5.400;2023-04-03T03:15:25;103102.25;;;4.93;100.00
47104;BME280;32853;52.164;5.400;2023-04-03T03:17:50;103053.75;;;4.46;100.00
47104;BME280;32853;52.164;5.400;2023-04-03T03:20:16;103115.13;;;4.89;100.00
47104;BME280;32853;52.164;5.400;2023-04-03T03:22:42;103100.84;;;4.67;100.00
47104;BME280;32853;52.164;5.400;2023-04-03T03:25:07;103113.06;;;4.73;100.00
47104;BME280;32853;52.164;5.400;2023-04-03T03:27:33;103107.47;;;4.54;100.00
47104;BME280;32853;52.164;5.400;2023-04-03T03:29:58;103094.97;;;4.76;100.00
47104;BME280;32853;52.164;5.400;2023-04-03T03:32:24;103077.56;;;4.69;100.00
47104;BME280;32853;52.164;5.400;2023-04-03T03:34:57;103039.16;;;4.49;100.00
47104;BME280;32853;52.164;5.400;2023-04-03T03:37:23;103092.25;;;4.70;100.00
47104;BME280;32853;52.164;5.400;2023-04-03T03:39:48;103100.59;;;4.55;100.00
47104;BME280;32853;52.164;5.400;2023-04-03T03:42:14;103116.34;;;4.65;100.00
47104;BME280;32853;52.164;5.400;2023-04-03T03:44:50;103056.56;;;4.16;100.00
47104;BME280;32853;52.164;5.400;2023-04-03T03:47:17;103046.38;;;4.23;100.00
47104;BME280;32853;52.164;5.400;2023-04-03T03:49:47;103093.50;;;4.46;100.00
47104;BME280;32853;52.164;5.400;2023-04-03T03:52:13;103109.47;;;4.66;100.00
47104;BME280;32853;52.164;5.400;2023-04-03T03:54:38;103102.22;;;4.51;100.00
47104;BME280;32853;52.164;5.400;2023-04-03T03:57:04;103121.47;;;4.62;100.00
47104;BME280;32853;52.164;5.400;2023-04-03T03:59:30;103048.00;;;4.20;100.00
47104;BME280;32853;52.164;5.400;2023-04-03T04:01:55;103095.38;;;4.53;100.00
47104;BME280;32853;52.164;5.400;2023-04-03T04:04:37;103061.94;;;4.25;100.00
47104;BME280;32853;52.164;5.400;2023-04-03T04:07:03;103112.41;;;4.42;100.00
47104;BME280;32853;52.164;5.400;2023-04-03T04:09:28;103098.66;;;4.45;100.00
47104;BME280;32853;52.164;5.400;2023-04-03T04:11:54;103119.69;;;4.58;100.00
47104;BME280;32853;52.164;5.400;2023-04-03T04:14:20;103116.16;;;4.55;100.00
47104;BME280;32853;52.164;5.400;2023-04-03T04:16:55;103058.22;;;4.12;100.00
47104;BME280;32853;52.164;5.400;2023-04-03T04:19:20;103122.88;;;4.47;100.00
47104;BME280;32853;52.164;5.400;2023-04-03T04:21:50;103092.44;;;4.38;100.00
47104;BME280;32853;52.164;5.400;2023-04-03T04:24:15;103109.22;;;4.16;100.00
47104;BME280;32853;52.164;5.400;2023-04-03T04:26:50;103069.03;;;3.94;100.00
47104;BME280;32853;52.164;5.400;2023-04-03T04:29:15;103128.06;;;4.47;100.00
47104;BME280;32853;52.164;5.400;2023-04-03T04:31:41;103079.09;;;4.20;100.00
47104;BME280;32853;52.164;5.400;2023-04-03T04:34:19;103136.75;;;4.50;100.00
47104;BME280;32853;52.164;5.400;2023-04-03T04:36:44;103102.53;;;4.26;100.00
47104;BME280;32853;52.164;5.400;2023-04-03T04:39:18;103129.88;;;4.51;100.00
47104;BME280;32853;52.164;5.400;2023-04-03T04:41:45;103114.91;;;4.37;100.00
47104;BME280;32853;52.164;5.400;2023-04-03T04:44:12;103129.59;;;4.38;100.00
47104;BME280;32853;52.164;5.400;2023-04-03T04:46:38;103114.81;;;4.33;100.00
47104;BME280;32853;52.164;5.400;2023-04-03T04:49:03;103139.03;;;4.35;100.00
47104;BME280;32853;52.164;5.400;2023-04-03T04:51:32;103145.16;;;4.40;100.00
47104;BME280;32853;52.164;5.400;2023-04-03T04:54:12;103123.34;;;4.30;100.00
47104;BME280;32853;52.164;5.400;2023-04-03T04:56:44;103138.41;;;4.47;100.00
47104;BME280;32853;52.164;5.400;2023-04-03T04:59:10;103124.16;;;4.26;100.00
47104;BME280;32853;52.164;5.400;2023-04-03T05:01:35;103121.31;;;4.16;100.00
47104;BME280;32853;52.164;5.400;2023-04-03T05:04:10;103145.13;;;4.38;100.00
47104;BME280;32853;52.164;5.400;2023-04-03T05:06:38;103125.00;;;4.27;100.00
47104;BME280;32853;52.164;5.400;2023-04-03T05:09:18;103145.06;;;4.35;100.00
47104;BME280;32853;52.164;5.400;2023-04-03T05:11:45;103128.00;;;4.07;100.00
47104;BME280;32853;52.164;5.400;2023-04-03T05:14:16;103140.63;;;4.30;100.00
47104;BME280;32853;52.164;5.400;2023-04-03T05:16:41;103144.78;;;4.22;100.00
47104;BME280;32853;52.164;5.400;2023-04-03T05:19:06;103153.44;;;4.24;100.00
47104;BME280;32853;52.164;5.400;2023-04-03T05:21:32;103132.38;;;4.10;100.00
47104;BME280;32853;52.164;5.400;2023-04-03T05:24:03;103156.84;;;4.21;100.00
47104;BME280;32853;52.164;5.400;2023-04-03T05:26:30;103167.50;;;3.99;100.00
47104;BME280;32853;52.164;5.400;2023-04-03T05:28:55;103096.69;;;3.61;100.00
47104;BME280;32853;52.164;5.400;2023-04-03T05:31:24;103139.78;;;3.95;100.00
47104;BME280;32853;52.164;5.400;2023-04-03T05:33:50;103134.56;;;3.92;100.00
47104;BME280;32853;52.164;5.400;2023-04-03T05:36:28;103160.50;;;3.95;100.00
47104;BME280;32853;52.164;5.400;2023-04-03T05:38:53;103168.63;;;4.10;100.00
47104;BME280;32853;52.164;5.400;2023-04-03T05:41:21;103166.94;;;4.11;100.00
47104;BME280;32853;52.164;5.400;2023-04-03T05:43:47;103161.25;;;3.89;100.00
47104;BME280;32853;52.164;5.400;2023-04-03T05:46:14;103144.66;;;3.83;100.00
47104;BME280;32853;52.164;5.400;2023-04-03T05:48:40;103151.75;;;3.90;100.00
47104;BME280;32853;52.164;5.400;2023-04-03T05:51:22;102944.44;;;2.72;100.00
47104;BME280;32853;52.164;5.400;2023-04-03T05:53:48;103173.91;;;4.13;100.00
47104;BME280;32853;52.164;5.400;2023-04-03T05:56:16;103175.75;;;3.84;100.00
47104;BME280;32853;52.164;5.400;2023-04-03T05:58:41;103183.97;;;4.01;100.00
47104;BME280;32853;52.164;5.400;2023-04-03T06:01:07;102919.25;;;2.32;100.00
47104;BME280;32853;52.164;5.400;2023-04-03T06:03:33;103096.38;;;3.15;100.00
47104;BME280;32853;52.164;5.400;2023-04-03T06:05:59;103102.94;;;3.36;100.00
47104;BME280;32853;52.164;5.400;2023-04-03T06:08:24;103183.88;;;3.65;100.00
47104;BME280;32853;52.164;5.400;2023-04-03T06:10:50;103055.75;;;3.11;100.00
47104;BME280;32853;52.164;5.400;2023-04-03T06:13:16;103186.38;;;3.60;100.00
47104;BME280;32853;52.164;5.400;2023-04-03T06:15:43;103148.38;;;3.59;100.00
47104;BME280;32853;52.164;5.400;2023-04-03T06:18:08;103191.53;;;3.93;100.00
47104;BME280;32853;52.164;5.400;2023-04-03T06:20:34;103132.41;;;3.42;100.00
47104;BME280;32853;52.164;5.400;2023-04-03T06:22:59;103130.09;;;3.53;100.00
47104;BME280;32853;52.164;5.400;2023-04-03T06:25:25;103142.38;;;3.60;100.00
47104;BME280;32853;52.164;5.400;2023-04-03T06:27:50;103143.81;;;3.49;100.00
47104;BME280;32853;52.164;5.400;2023-04-03T06:30:15;103111.72;;;3.42;100.00
47104;BME280;32853;52.164;5.400;2023-04-03T06:32:43;103132.47;;;3.44;100.00
47104;BME280;32853;52.164;5.400;2023-04-03T06:35:08;103160.59;;;3.65;100.00
47104;BME280;32853;52.164;5.400;2023-04-03T06:37:34;103110.44;;;3.27;100.00
47104;BME280;32853;52.164;5.400;2023-04-03T06:40:01;103208.22;;;4.04;100.00
47104;BME280;32853;52.164;5.400;2023-04-03T06:42:26;103229.72;;;4.02;100.00
47104;BME280;32853;52.164;5.400;2023-04-03T06:44:58;103167.47;;;3.97;100.00
47104;BME280;32853;52.164;5.400;2023-04-03T06:47:23;103165.25;;;4.13;100.00
47104;BME280;32853;52.164;5.400;2023-04-03T06:49:52;103214.22;;;4.03;100.00
47104;BME280;32853;52.164;5.400;2023-04-03T06:52:17;103167.97;;;3.49;100.00
47104;BME280;32853;52.164;5.400;2023-04-03T06:54:51;103192.16;;;3.52;100.00
47104;BME280;32853;52.164;5.400;2023-04-03T06:57:23;103229.91;;;3.76;100.00
47104;BME280;32853;52.164;5.400;2023-04-03T06:59:49;103233.56;;;3.83;100.00
47104;BME280;32853;52.164;5.400;2023-04-03T07:02:18;103157.41;;;3.42;100.00
47104;BME280;32853;52.164;5.400;2023-04-03T07:04:49;103240.66;;;3.90;100.00
47104;BME280;32853;52.164;5.400;2023-04-03T07:07:14;103159.16;;;3.76;100.00
47104;BME280;32853;52.164;5.400;2023-04-03T07:09:44;103065.53;;;3.23;100.00
47104;BME280;32853;52.164;5.400;2023-04-03T07:12:11;103083.41;;;3.47;100.00
47104;BME280;32853;52.164;5.400;2023-04-03T07:14:38;103241.25;;;4.49;100.00
47104;BME280;32853;52.164;5.400;2023-04-03T07:17:03;103229.28;;;4.54;100.00
47104;BME280;32853;52.164;5.400;2023-04-03T07:19:29;103182.50;;;4.48;100.00
47104;BME280;32853;52.164;5.400;2023-04-03T07:21:59;103248.41;;;4.59;100.00
47104;BME280;32853;52.164;5.400;2023-04-03T07:24:25;103244.31;;;4.69;100.00
47104;BME280;32853;52.164;5.400;2023-04-03T07:27:03;103247.41;;;4.90;100.00
47104;BME280;32853;52.164;5.400;2023-04-03T07:29:34;103231.47;;;5.13;100.00
47104;BME280;32853;52.164;5.400;2023-04-03T07:32:00;103227.75;;;5.02;100.00
47104;BME280;32853;52.164;5.400;2023-04-03T07:34:43;103258.56;;;5.27;100.00
47104;BME280;32853;52.164;5.400;2023-04-03T07:37:21;103239.44;;;5.22;100.00
47104;BME280;32853;52.164;5.400;2023-04-03T07:39:47;103201.69;;;4.95;100.00
47104;BME280;32853;52.164;5.400;2023-04-03T07:42:19;103225.03;;;5.38;100.00
47104;BME280;32853;52.164;5.400;2023-04-03T07:44:47;103261.66;;;5.53;100.00
47104;BME280;32853;52.164;5.400;2023-04-03T07:47:15;103227.63;;;5.38;100.00
47104;BME280;32853;52.164;5.400;2023-04-03T07:49:43;103262.28;;;5.40;100.00
47104;BME280;32853;52.164;5.400;2023-04-03T07:52:08;103204.66;;;5.14;98.08
47104;BME280;32853;52.164;5.400;2023-04-03T07:54:34;103232.59;;;5.71;98.53
47104;BME280;32853;52.164;5.400;2023-04-03T07:57:00;103264.91;;;5.87;89.70
47104;BME280;32853;52.164;5.400;2023-04-03T07:59:25;103266.34;;;5.71;88.31
47104;BME280;32853;52.164;5.400;2023-04-03T08:01:51;103268.72;;;6.02;86.43
47104;BME280;32853;52.164;5.400;2023-04-03T08:04:17;103201.41;;;5.69;83.40
47104;BME280;32853;52.164;5.400;2023-04-03T08:06:43;103253.72;;;5.89;80.37
47104;BME280;32853;52.164;5.400;2023-04-03T08:09:09;103245.66;;;5.75;78.90
47104;BME280;32853;52.164;5.400;2023-04-03T08:11:35;103263.13;;;5.84;77.67
47104;BME280;32853;52.164;5.400;2023-04-03T08:14:08;103253.22;;;6.08;75.47
47104;BME280;32853;52.164;5.400;2023-04-03T08:16:48;103277.66;;;6.20;74.82
47104;BME280;32853;52.164;5.400;2023-04-03T08:19:14;103262.66;;;6.03;70.31
47104;BME280;32853;52.164;5.400;2023-04-03T08:21:48;103275.03;;;6.18;68.20
47104;BME280;32853;52.164;5.400;2023-04-03T08:24:14;103276.06;;;6.28;68.23
47104;BME280;32853;52.164;5.400;2023-04-03T08:26:44;103224.06;;;6.25;67.46
47104;BME280;32853;52.164;5.400;2023-04-03T08:29:23;103292.19;;;6.60;66.19
47104;BME280;32853;52.164;5.400;2023-04-03T08:31:49;103234.34;;;6.19;65.21
47104;BME280;32853;52.164;5.400;2023-04-03T08:34:15;103284.75;;;6.83;65.78
47104;BME280;32853;52.164;5.400;2023-04-03T08:36:41;103237.59;;;6.60;63.24
47104;BME280;32853;52.164;5.400;2023-04-03T08:39:07;103293.47;;;6.86;62.48
47104;BME280;32853;52.164;5.400;2023-04-03T08:41:41;103242.22;;;6.78;62.22
47104;BME280;32853;52.164;5.400;2023-04-03T08:47:23;103294.81;;;7.20;58.65
47104;BME280;32853;52.164;5.400;2023-04-03T08:49:59;103293.13;;;7.22;57.23
47104;BME280;32853;52.164;5.400;2023-04-03T08:52:42;103228.94;;;7.23;55.77
47104;BME280;32853;52.164;5.400;2023-04-03T08:55:34;103295.06;;;7.39;54.65
47104;BME280;32853;52.164;5.400;2023-04-03T08:58:11;103210.53;;;7.09;53.89
47104;BME280;32853;52.164;5.400;2023-04-03T09:00:56;103288.94;;;8.11;52.51
47104;BME280;32853;52.164;5.400;2023-04-03T09:03:38;103242.81;;;8.04;52.84
47104;BME280;32853;52.164;5.400;2023-04-03T09:09:41;103279.22;;;7.96;48.70
47104;BME280;32853;52.164;5.400;2023-04-03T09:15:18;103293.53;;;8.35;46.30
47104;BME280;32853;52.164;5.400;2023-04-03T09:20:25;103289.91;;;8.24;44.45
47104;BME280;32853;52.164;5.400;2023-04-03T09:22:53;103299.56;;;8.32;45.54
47104;BME280;32853;52.164;5.400;2023-04-03T09:25:27;103297.75;;;8.27;44.17
47104;BME280;32853;52.164;5.400;2023-04-03T09:27:57;103289.06;;;8.25;42.04
47104;BME280;32853;52.164;5.400;2023-04-03T09:30:34;103270.06;;;8.36;42.99
47104;BME280;32853;52.164;5.400;2023-04-03T09:33:00;103269.38;;;8.62;41.75
47104;BME280;32853;52.164;5.400;2023-04-03T09:35:34;103198.00;;;8.43;40.46
47104;BME280;32853;52.164;5.400;2023-04-03T09:38:15;103256.44;;;8.76;39.55
47104;BME280;32853;52.164;5.400;2023-04-03T09:41:17;103219.97;;;8.82;40.69
47104;BME280;32853;52.164;5.400;2023-04-03T09:43:54;103252.31;;;9.19;41.69
47104;BME280;32853;52.164;5.400;2023-04-03T09:46:40;103278.47;;;9.31;40.97
47104;BME280;32853;52.164;5.400;2023-04-03T09:49:10;103282.06;;;9.48;40.52
47104;BME280;32853;52.164;5.400;2023-04-03T09:52:12;103275.75;;;9.00;38.75
47104;BME280;32853;52.164;5.400;2023-04-03T09:54:43;103224.22;;;8.66;38.34
47104;BME280;32853;52.164;5.400;2023-04-03T09:57:11;103211.06;;;8.51;37.88
47104;BME280;32853;52.164;5.400;2023-04-03T09:59:45;103174.69;;;8.75;38.46
47104;BME280;32853;52.164;5.400;2023-04-03T10:02:23;103203.63;;;9.30;38.78
47104;BME280;32853;52.164;5.400;2023-04-03T10:05:26;103255.19;;;10.00;38.17
47104;BME280;32853;52.164;5.400;2023-04-03T10:10:48;103224.69;;;9.88;36.82
47104;BME280;32853;52.164;5.400;2023-04-03T10:13:34;103242.09;;;10.04;37.51
47104;BME280;32853;52.164;5.400;2023-04-03T10:16:09;103211.59;;;9.79;37.15
47104;BME280;32853;52.164;5.400;2023-04-03T10:19:02;103235.97;;;9.81;35.85
47104;BME280;32853;52.164;5.400;2023-04-03T10:21:48;103245.50;;;9.64;36.69
47104;BME280;32853;52.164;5.400;2023-04-03T10:27:01;103184.56;;;9.55;36.93
47104;BME280;32853;52.164;5.400;2023-04-03T10:29:48;103216.84;;;10.06;36.49
47104;BME280;32853;52.164;5.400;2023-04-03T10:38:42;103203.78;;;10.25;35.34
47104;BME280;32853;52.164;5.400;2023-04-03T10:44:20;103189.78;;;10.52;36.00
47104;BME280;32853;52.164;5.400;2023-04-03T10:46:58;103200.31;;;10.27;34.89
47104;BME280;32853;52.164;5.400;2023-04-03T10:52:07;103182.00;;;10.26;35.61
47104;BME280;32853;52.164;5.400;2023-04-03T10:54:40;103116.63;;;9.84;34.81
47104;BME280;32853;52.164;5.400;2023-04-03T10:57:12;103197.63;;;10.68;35.51
47104;BME280;32853;52.164;5.400;2023-04-03T11:02:51;103188.00;;;10.80;36.22
47104;BME280;32853;52.164;5.400;2023-04-03T11:08:04;103182.72;;;10.84;35.58
47104;BME280;32853;52.164;5.400;2023-04-03T11:10:45;103190.59;;;10.81;36.01
47104;BME280;32853;52.164;5.400;2023-04-03T11:13:55;103171.22;;;11.19;36.25
47104;BME280;32853;52.164;5.400;2023-04-03T11:16:28;103117.34;;;10.76;35.91
47104;BME280;32853;52.164;5.400;2023-04-03T11:22:23;103175.41;;;11.55;36.70
47104;BME280;32853;52.164;5.400;2023-04-03T11:25:20;103168.34;;;11.61;37.42
47104;BME280;32853;52.164;5.400;2023-04-03T11:27:54;103104.16;;;10.93;37.00
47104;BME280;32853;52.164;5.400;2023-04-03T11:35:45;103152.13;;;11.03;36.02
47104;BME280;32853;52.164;5.400;2023-04-03T11:38:35;103179.91;;;11.34;36.13
47104;BME280;32853;52.164;5.400;2023-04-03T11:41:05;103157.22;;;11.27;36.02
47104;BME280;32853;52.164;5.400;2023-04-03T11:43:55;103173.72;;;11.45;36.16
47104;BME280;32853;52.164;5.400;2023-04-03T11:46:55;103139.53;;;11.61;36.21
47104;BME280;32853;52.164;5.400;2023-04-03T11:50:41;103165.50;;;11.97;36.79
47104;BME280;32853;52.164;5.400;2023-04-03T11:58:11;103152.19;;;12.21;36.24
47104;BME280;32853;52.164;5.400;2023-04-03T12:19:04;103131.78;;;11.48;36.23
47104;BME280;32853;52.164;5.400;2023-04-03T12:24:29;103115.44;;;12.23;35.29
47104;BME280;32853;52.164;5.400;2023-04-03T12:32:24;103110.84;;;11.40;35.74
47104;BME280;32853;52.164;5.400;2023-04-03T12:35:06;103097.81;;;11.29;35.32
47104;BME280;32853;52.164;5.400;2023-04-03T12:40:45;103092.72;;;12.18;35.29
47104;BME280;32853;52.164;5.400;2023-04-03T12:49:01;103081.03;;;12.48;35.44
47104;BME280;32853;52.164;5.400;2023-04-03T12:51:40;103081.91;;;12.47;35.77
47104;BME280;32853;52.164;5.400;2023-04-03T12:54:35;103075.38;;;12.79;35.75
47104;BME280;32853;52.164;5.400;2023-04-03T12:57:20;103066.56;;;12.86;36.70
47104;BME280;32853;52.164;5.400;2023-04-03T12:59:46;103015.16;;;12.67;35.45
47104;BME280;32853;52.164;5.400;2023-04-03T13:04:50;103075.13;;;12.99;35.04
47104;BME280;32853;52.164;5.400;2023-04-03T13:11:01;103063.34;;;13.26;35.93
47104;BME280;32853;52.164;5.400;2023-04-03T13:13:27;103063.47;;;13.20;34.96
47104;BME280;32853;52.164;5.400;2023-04-03T13:15:55;103053.69;;;13.28;35.27
47104;BME280;32853;52.164;5.400;2023-04-03T13:18:27;103054.38;;;13.39;35.70
47104;BME280;32853;52.164;5.400;2023-04-03T13:21:18;103053.66;;;13.31;33.96
47104;BME280;32853;52.164;5.400;2023-04-03T13:23:47;103056.06;;;13.45;34.59
47104;BME280;32853;52.164;5.400;2023-04-03T13:26:16;103015.03;;;12.77;34.61
47104;BME280;32853;52.164;5.400;2023-04-03T13:28:45;102978.16;;;12.22;35.30
47104;BME280;32853;52.164;5.400;2023-04-03T13:31:38;103028.03;;;12.85;35.19
47104;BME280;32853;52.164;5.400;2023-04-03T13:34:11;103040.94;;;13.57;36.07
47104;BME280;32853;52.164;5.400;2023-04-03T13:36:41;103043.47;;;13.63;35.19
47104;BME280;32853;52.164;5.400;2023-04-03T13:41:42;102977.22;;;12.88;33.97
47104;BME280;32853;52.164;5.400;2023-04-03T13:49:44;103048.63;;;12.49;35.28
47104;BME280;32853;52.164;5.400;2023-04-03T13:52:38;103050.72;;;12.91;35.58
47104;BME280;32853;52.164;5.400;2023-04-03T13:55:25;103051.88;;;13.30;35.93
47104;BME280;32853;52.164;5.400;2023-04-03T14:00:48;103002.91;;;12.67;35.97
47104;BME280;32853;52.164;5.400;2023-04-03T14:03:45;103046.28;;;12.94;36.05
47104;BME280;32853;52.164;5.400;2023-04-03T14:06:18;103048.31;;;12.75;36.23
47104;BME280;32853;52.164;5.400;2023-04-03T14:08:44;102974.84;;;12.71;36.62
47104;BME280;32853;52.164;5.400;2023-04-03T14:11:26;103015.28;;;13.21;36.08
47104;BME280;32853;52.164;5.400;2023-04-03T14:13:54;103014.34;;;13.23;36.26
47104;BME280;32853;52.164;5.400;2023-04-03T14:16:26;102938.94;;;12.73;36.67
47104;BME280;32853;52.164;5.400;2023-04-03T14:18:53;103007.97;;;13.38;36.19
47104;BME280;32853;52.164;5.400;2023-04-03T14:21:19;103023.63;;;13.93;36.64
47104;BME280;32853;52.164;5.400;2023-04-03T14:23:46;103011.75;;;13.71;35.59
47104;BME280;32853;52.164;5.400;2023-04-03T14:26:14;102965.38;;;13.16;36.03
47104;BME280;32853;52.164;5.400;2023-04-03T14:28:42;102991.28;;;12.84;36.25
47104;BME280;32853;52.164;5.400;2023-04-03T14:31:10;102996.31;;;13.54;36.16
47104;BME280;32853;52.164;5.400;2023-04-03T14:33:40;103010.97;;;13.68;35.74
47104;BME280;32853;52.164;5.400;2023-04-03T14:36:18;103011.53;;;13.34;35.45
47104;BME280;32853;52.164;5.400;2023-04-03T14:38:56;102983.59;;;13.28;35.37
47104;BME280;32853;52.164;5.400;2023-04-03T14:41:23;103002.25;;;13.65;35.36
47104;BME280;32853;52.164;5.400;2023-04-03T14:43:52;103007.03;;;13.42;35.81
47104;BME280;32853;52.164;5.400;2023-04-03T14:46:35;102955.00;;;13.07;35.99
47104;BME280;32853;52.164;5.400;2023-04-03T14:49:02;102997.16;;;13.01;35.18
47104;BME280;32853;52.164;5.400;2023-04-03T14:51:27;103008.88;;;12.78;36.36
47104;BME280;32853;52.164;5.400;2023-04-03T14:53:53;103001.59;;;12.97;35.43
47104;BME280;32853;52.164;5.400;2023-04-03T14:56:31;102993.69;;;13.54;36.43
47104;BME280;32853;52.164;5.400;2023-04-03T14:59:08;103001.66;;;13.48;35.87